sensor_id;sensor_type;location;lat;lon;timestamp;temperature;humidity
18934;DHT22;9599;53.706;10.384;2022-09-09T00:00:45;16.00;99.90
18934;DHT22;9599;53.706;10.384;2022-09-09T00:03:17;16.00;99.90
18934;DHT22;9599;53.706;10.384;2022-09-09T00:05:56;16.00;99.90
18934;DHT22;9599;53.706;10.384;2022-09-09T00:08:33;16.10;99.90
18934;DHT22;9599;53.706;10.384;2022-09-09T00:11:05;16.00;99.90
18934;DHT22;9599;53.706;10.384;2022-09-09T00:13:39;16.10;99.90
18934;DHT22;9599;53.706;10.384;2022-09-09T00:16:13;16.10;99.90
18934;DHT22;9599;53.706;10.384;2022-09-09T00:18:52;16.10;99.90
18934;DHT22;9599;53.706;10.384;2022-09-09T00:21:28;16.10;99.90
18934;DHT22;9599;53.706;10.384;2022-09-09T00:24:04;16.10;99.90
18934;DHT22;9599;53.706;10.384;2022-09-09T00:26:40;16.10;99.90
18934;DHT22;9599;53.706;10.384;2022-09-09T00:29:14;16.00;99.90
18934;DHT22;9599;53.706;10.384;2022-09-09T00:31:46;16.00;99.90
18934;DHT22;9599;53.706;10.384;2022-09-09T00:34:16;16.00;99.90
18934;DHT22;9599;53.706;10.384;2022-09-09T00:36:49;16.00;99.90
18934;DHT22;9599;53.706;10.384;2022-09-09T00:42:13;16.00;99.90
18934;DHT22;9599;53.706;10.384;2022-09-09T00:44:52;15.90;99.90
18934;DHT22;9599;53.706;10.384;2022-09-09T00:47:36;16.00;99.90
18934;DHT22;9599;53.706;10.384;2022-09-09T00:50:17;15.90;99.90
18934;DHT22;9599;53.706;10.384;2022-09-09T00:52:59;15.90;99.90
18934;DHT22;9599;53.706;10.384;2022-09-09T00:55:36;15.90;99.90
18934;DHT22;9599;53.706;10.384;2022-09-09T00:58:08;16.00;99.90
18934;DHT22;9599;53.706;10.384;2022-09-09T01:00:42;16.00;99.90
18934;DHT22;9599;53.706;10.384;2022-09-09T01:03:19;16.00;99.90
18934;DHT22;9599;53.706;10.384;2022-09-09T01:05:59;16.00;99.90
18934;DHT22;9599;53.706;10.384;2022-09-09T01:08:55;15.90;99.90
18934;DHT22;9599;53.706;10.384;2022-09-09T01:11:26;16.00;99.90
18934;DHT22;9599;53.706;10.384;2022-09-09T01:14:02;15.90;99.90
18934;DHT22;9599;53.706;10.384;2022-09-09T01:16:33;15.90;99.90
18934;DHT22;9599;53.706;10.384;2022-09-09T01:19:03;16.00;99.90
18934;DHT22;9599;53.706;10.384;2022-09-09T01:21:39;16.00;99.90
18934;DHT22;9599;53.706;10.384;2022-09-09T01:24:24;16.00;99.90
18934;DHT22;9599;53.706;10.384;2022-09-09T01:27:09;16.10;99.90
18934;DHT22;9599;53.706;10.384;2022-09-09T01:29:38;16.10;99.90
18934;DHT22;9599;53.706;10.384;2022-09-09T01:32:39;16.10;99.90
18934;DHT22;9599;53.706;10.384;2022-09-09T01:35:13;16.10;99.90
18934;DHT22;9599;53.706;10.384;2022-09-09T01:37:42;16.10;99.90
18934;DHT22;9599;53.706;10.384;2022-09-09T01:40:10;16.10;99.90
18934;DHT22;9599;53.706;10.384;2022-09-09T01:42:40;16.10;99.90
18934;DHT22;9599;53.706;10.384;2022-09-09T01:45:09;16.10;99.90
18934;DHT22;9599;53.706;10.384;2022-09-09T01:47:37;16.10;99.90
18934;DHT22;9599;53.706;10.384;2022-09-09T01:50:17;16.10;99.90
18934;DHT22;9599;53.706;10.384;2022-09-09T01:52:49;16.10;99.90
18934;DHT22;9599;53.706;10.384;2022-09-09T01:55:26;16.10;99.90
18934;DHT22;9599;53.706;10.384;2022-09-09T01:58:11;16.00;99.90
18934;DHT22;9599;53.706;10.384;2022-09-09T02:00:53;15.90;99.90
18934;DHT22;9599;53.706;10.384;2022-09-09T02:03:27;15.90;99.90
18934;DHT22;9599;53.706;10.384;2022-09-09T02:06:08;15.90;99.90
18934;DHT22;9599;53.706;10.384;2022-09-09T02:08:44;15.90;99.90
18934;DHT22;9599;53.706;10.384;2022-09-09T02:11:15;15.90;99.90
18934;DHT22;9599;53.706;10.384;2022-09-09T02:14:03;15.90;99.90
18934;DHT22;9599;53.706;10.384;2022-09-09T02:16:39;15.90;99.90
18934;DHT22;9599;53.706;10.384;2022-09-09T02:19:13;15.90;99.90
18934;DHT22;9599;53.706;10.384;2022-09-09T02:21:56;15.80;99.90
18934;DHT22;9599;53.706;10.384;2022-09-09T02:24:25;15.80;99.90
18934;DHT22;9599;53.706;10.384;2022-09-09T02:27:08;15.80;99.90
18934;DHT22;9599;53.706;10.384;2022-09-09T02:29:40;15.80;99.90
18934;DHT22;9599;53.706;10.384;2022-09-09T02:32:14;15.80;99.90
18934;DHT22;9599;53.706;10.384;2022-09-09T02:34:45;15.80;99.90
18934;DHT22;9599;53.706;10.384;2022-09-09T02:37:18;15.80;99.90
18934;DHT22;9599;53.706;10.384;2022-09-09T02:39:50;15.70;99.90
18934;DHT22;9599;53.706;10.384;2022-09-09T02:42:21;15.70;99.90
18934;DHT22;9599;53.706;10.384;2022-09-09T02:44:52;15.80;99.90
18934;DHT22;9599;53.706;10.384;2022-09-09T02:47:27;15.80;99.90
18934;DHT22;9599;53.706;10.384;2022-09-09T02:50:08;15.80;99.90
18934;DHT22;9599;53.706;10.384;2022-09-09T02:52:47;15.80;99.90
18934;DHT22;9599;53.706;10.384;2022-09-09T02:55:23;15.80;99.90
18934;DHT22;9599;53.706;10.384;2022-09-09T02:57:57;15.80;99.90
18934;DHT22;9599;53.706;10.384;2022-09-09T03:00:29;15.80;99.90
18934;DHT22;9599;53.706;10.384;2022-09-09T03:03:00;15.80;99.90
18934;DHT22;9599;53.706;10.384;2022-09-09T03:05:28;15.90;99.90
18934;DHT22;9599;53.706;10.384;2022-09-09T03:07:56;15.80;99.90
18934;DHT22;9599;53.706;10.384;2022-09-09T03:10:25;15.80;99.90
18934;DHT22;9599;53.706;10.384;2022-09-09T03:12:53;15.90;99.90
18934;DHT22;9599;53.706;10.384;2022-09-09T03:15:21;15.90;99.90
18934;DHT22;9599;53.706;10.384;2022-09-09T03:17:51;15.80;99.90
18934;DHT22;9599;53.706;10.384;2022-09-09T03:20:20;15.90;99.90
18934;DHT22;9599;53.706;10.384;2022-09-09T03:22:49;15.80;99.90
18934;DHT22;9599;53.706;10.384;2022-09-09T03:25:17;15.90;99.90
18934;DHT22;9599;53.706;10.384;2022-09-09T03:27:46;15.90;99.90
18934;DHT22;9599;53.706;10.384;2022-09-09T03:30:13;15.90;99.90
18934;DHT22;9599;53.706;10.384;2022-09-09T03:32:42;15.90;99.90
18934;DHT22;9599;53.706;10.384;2022-09-09T03:35:16;15.90;99.90
18934;DHT22;9599;53.706;10.384;2022-09-09T03:37:44;15.90;99.90
18934;DHT22;9599;53.706;10.384;2022-09-09T03:40:13;15.90;99.90
18934;DHT22;9599;53.706;10.384;2022-09-09T03:42:43;15.90;99.90
18934;DHT22;9599;53.706;10.384;2022-09-09T03:45:11;15.80;99.90
18934;DHT22;9599;53.706;10.384;2022-09-09T03:47:40;15.80;99.90
18934;DHT22;9599;53.706;10.384;2022-09-09T03:50:09;15.90;99.90
18934;DHT22;9599;53.706;10.384;2022-09-09T03:52:44;15.90;99.90
18934;DHT22;9599;53.706;10.384;2022-09-09T03:55:18;15.90;99.90
18934;DHT22;9599;53.706;10.384;2022-09-09T03:57:46;15.90;99.90
18934;DHT22;9599;53.706;10.384;2022-09-09T04:00:14;15.90;99.90
18934;DHT22;9599;53.706;10.384;2022-09-09T04:02:43;15.90;99.90
18934;DHT22;9599;53.706;10.384;2022-09-09T04:05:14;15.90;99.90
18934;DHT22;9599;53.706;10.384;2022-09-09T04:07:46;15.90;99.90
18934;DHT22;9599;53.706;10.384;2022-09-09T04:10:14;15.80;99.90
18934;DHT22;9599;53.706;10.384;2022-09-09T04:12:43;15.80;99.90
18934;DHT22;9599;53.706;10.384;2022-09-09T04:15:15;15.80;99.90
18934;DHT22;9599;53.706;10.384;2022-09-09T04:17:45;15.80;99.90
18934;DHT22;9599;53.706;10.384;2022-09-09T04:20:12;15.80;99.90
18934;DHT22;9599;53.706;10.384;2022-09-09T04:22:40;15.80;99.90
18934;DHT22;9599;53.706;10.384;2022-09-09T04:25:09;15.80;99.90
18934;DHT22;9599;53.706;10.384;2022-09-09T04:27:37;15.80;99.90
18934;DHT22;9599;53.706;10.384;2022-09-09T04:30:07;15.80;99.90
18934;DHT22;9599;53.706;10.384;2022-09-09T04:32:35;15.80;99.90
18934;DHT22;9599;53.706;10.384;2022-09-09T04:35:04;15.70;99.90
18934;DHT22;9599;53.706;10.384;2022-09-09T04:37:33;15.70;99.90
18934;DHT22;9599;53.706;10.384;2022-09-09T04:40:01;15.70;99.90
18934;DHT22;9599;53.706;10.384;2022-09-09T04:42:34;15.70;99.90
18934;DHT22;9599;53.706;10.384;2022-09-09T04:45:03;15.70;99.90
18934;DHT22;9599;53.706;10.384;2022-09-09T04:47:31;15.60;99.90
18934;DHT22;9599;53.706;10.384;2022-09-09T04:49:59;15.60;99.90
18934;DHT22;9599;53.706;10.384;2022-09-09T04:52:28;15.50;99.90
18934;DHT22;9599;53.706;10.384;2022-09-09T04:54:56;15.50;99.90
18934;DHT22;9599;53.706;10.384;2022-09-09T04:57:23;15.50;99.90
18934;DHT22;9599;53.706;10.384;2022-09-09T04:59:53;15.50;99.90
18934;DHT22;9599;53.706;10.384;2022-09-09T05:02:20;15.50;99.90
18934;DHT22;9599;53.706;10.384;2022-09-09T05:04:49;15.50;99.90
18934;DHT22;9599;53.706;10.384;2022-09-09T05:07:17;15.60;99.90
18934;DHT22;9599;53.706;10.384;2022-09-09T05:09:45;15.60;99.90
18934;DHT22;9599;53.706;10.384;2022-09-09T05:12:16;15.60;99.90
18934;DHT22;9599;53.706;10.384;2022-09-09T05:14:49;15.60;99.90
18934;DHT22;9599;53.706;10.384;2022-09-09T05:17:18;15.60;99.90
18934;DHT22;9599;53.706;10.384;2022-09-09T05:19:47;15.60;99.90
18934;DHT22;9599;53.706;10.384;2022-09-09T05:22:18;15.70;99.90
18934;DHT22;9599;53.706;10.384;2022-09-09T05:24:48;15.70;99.90
18934;DHT22;9599;53.706;10.384;2022-09-09T05:27:17;15.70;99.90
18934;DHT22;9599;53.706;10.384;2022-09-09T05:29:47;15.70;99.90
18934;DHT22;9599;53.706;10.384;2022-09-09T05:32:15;15.70;99.90
18934;DHT22;9599;53.706;10.384;2022-09-09T05:34:48;15.70;99.90
18934;DHT22;9599;53.706;10.384;2022-09-09T05:37:16;15.70;99.90
18934;DHT22;9599;53.706;10.384;2022-09-09T05:39:45;15.70;99.90
18934;DHT22;9599;53.706;10.384;2022-09-09T05:42:13;15.70;99.90
18934;DHT22;9599;53.706;10.384;2022-09-09T05:44:41;15.70;99.90
18934;DHT22;9599;53.706;10.384;2022-09-09T05:47:09;15.80;99.90
18934;DHT22;9599;53.706;10.384;2022-09-09T05:49:37;15.80;99.90
18934;DHT22;9599;53.706;10.384;2022-09-09T05:52:06;15.70;99.90
18934;DHT22;9599;53.706;10.384;2022-09-09T05:54:34;15.70;99.90
18934;DHT22;9599;53.706;10.384;2022-09-09T05:57:02;15.70;99.90
18934;DHT22;9599;53.706;10.384;2022-09-09T05:59:30;15.80;99.90
18934;DHT22;9599;53.706;10.384;2022-09-09T06:01:59;15.80;99.90
18934;DHT22;9599;53.706;10.384;2022-09-09T06:04:33;15.90;99.90
18934;DHT22;9599;53.706;10.384;2022-09-09T06:07:02;15.90;99.90
18934;DHT22;9599;53.706;10.384;2022-09-09T06:09:31;15.90;99.90
18934;DHT22;9599;53.706;10.384;2022-09-09T06:11:59;16.00;99.90
18934;DHT22;9599;53.706;10.384;2022-09-09T06:14:27;16.00;99.90
18934;DHT22;9599;53.706;10.384;2022-09-09T06:16:58;16.00;99.90
18934;DHT22;9599;53.706;10.384;2022-09-09T06:19:28;16.00;99.90
18934;DHT22;9599;53.706;10.384;2022-09-09T06:21:58;16.00;99.90
18934;DHT22;9599;53.706;10.384;2022-09-09T06:24:28;16.10;99.90
18934;DHT22;9599;53.706;10.384;2022-09-09T06:26:59;16.10;99.90
18934;DHT22;9599;53.706;10.384;2022-09-09T06:29:31;16.10;99.90
18934;DHT22;9599;53.706;10.384;2022-09-09T06:32:01;16.10;99.90
18934;DHT22;9599;53.706;10.384;2022-09-09T06:34:30;16.20;99.90
18934;DHT22;9599;53.706;10.384;2022-09-09T06:36:59;16.20;99.90
18934;DHT22;9599;53.706;10.384;2022-09-09T06:39:33;16.20;99.90
18934;DHT22;9599;53.706;10.384;2022-09-09T06:42:03;16.20;99.90
18934;DHT22;9599;53.706;10.384;2022-09-09T06:44:54;16.20;99.90
18934;DHT22;9599;53.706;10.384;2022-09-09T06:47:48;16.10;99.90
18934;DHT22;9599;53.706;10.384;2022-09-09T06:50:16;16.10;99.90
18934;DHT22;9599;53.706;10.384;2022-09-09T06:52:46;16.20;99.90
18934;DHT22;9599;53.706;10.384;2022-09-09T06:55:14;16.20;99.90
18934;DHT22;9599;53.706;10.384;2022-09-09T06:57:43;16.30;99.90
18934;DHT22;9599;53.706;10.384;2022-09-09T07:00:16;16.50;99.90
18934;DHT22;9599;53.706;10.384;2022-09-09T07:02:44;16.60;99.90
18934;DHT22;9599;53.706;10.384;2022-09-09T07:05:13;16.70;99.90
18934;DHT22;9599;53.706;10.384;2022-09-09T07:07:43;16.80;99.90
18934;DHT22;9599;53.706;10.384;2022-09-09T07:10:13;16.90;99.90
18934;DHT22;9599;53.706;10.384;2022-09-09T07:12:41;16.90;99.90
18934;DHT22;9599;53.706;10.384;2022-09-09T07:15:12;17.00;99.90
18934;DHT22;9599;53.706;10.384;2022-09-09T07:17:43;17.00;99.90
18934;DHT22;9599;53.706;10.384;2022-09-09T07:20:11;17.10;99.90
18934;DHT22;9599;53.706;10.384;2022-09-09T07:22:39;17.10;99.90
18934;DHT22;9599;53.706;10.384;2022-09-09T07:25:08;17.30;99.90
18934;DHT22;9599;53.706;10.384;2022-09-09T07:27:36;17.30;99.90
18934;DHT22;9599;53.706;10.384;2022-09-09T07:30:06;17.40;99.90
18934;DHT22;9599;53.706;10.384;2022-09-09T07:32:35;17.30;99.90
18934;DHT22;9599;53.706;10.384;2022-09-09T07:35:06;17.30;99.90
18934;DHT22;9599;53.706;10.384;2022-09-09T07:37:37;17.40;99.90
18934;DHT22;9599;53.706;10.384;2022-09-09T07:40:06;17.50;99.90
18934;DHT22;9599;53.706;10.384;2022-09-09T07:42:34;17.50;99.90
18934;DHT22;9599;53.706;10.384;2022-09-09T07:45:02;17.70;99.90
18934;DHT22;9599;53.706;10.384;2022-09-09T07:47:31;17.90;99.90
18934;DHT22;9599;53.706;10.384;2022-09-09T07:50:00;18.10;99.90
18934;DHT22;9599;53.706;10.384;2022-09-09T07:52:30;18.40;99.90
18934;DHT22;9599;53.706;10.384;2022-09-09T07:55:02;18.50;99.90
18934;DHT22;9599;53.706;10.384;2022-09-09T07:57:31;18.50;99.90
18934;DHT22;9599;53.706;10.384;2022-09-09T08:00:00;18.30;99.90
18934;DHT22;9599;53.706;10.384;2022-09-09T08:02:38;18.40;99.90
18934;DHT22;9599;53.706;10.384;2022-09-09T08:05:08;18.50;99.90
18934;DHT22;9599;53.706;10.384;2022-09-09T08:07:39;18.50;99.90
18934;DHT22;9599;53.706;10.384;2022-09-09T08:10:07;18.40;99.90
18934;DHT22;9599;53.706;10.384;2022-09-09T08:12:36;18.40;99.90
18934;DHT22;9599;53.706;10.384;2022-09-09T08:15:05;18.50;99.90
18934;DHT22;9599;53.706;10.384;2022-09-09T08:17:33;18.50;99.90
18934;DHT22;9599;53.706;10.384;2022-09-09T08:20:05;18.70;99.90
18934;DHT22;9599;53.706;10.384;2022-09-09T08:22:35;18.70;99.90
18934;DHT22;9599;53.706;10.384;2022-09-09T08:25:05;18.80;99.90
18934;DHT22;9599;53.706;10.384;2022-09-09T08:27:36;18.80;99.90
18934;DHT22;9599;53.706;10.384;2022-09-09T08:30:06;19.20;99.90
18934;DHT22;9599;53.706;10.384;2022-09-09T08:32:34;19.40;99.90
18934;DHT22;9599;53.706;10.384;2022-09-09T08:35:03;19.70;99.90
18934;DHT22;9599;53.706;10.384;2022-09-09T08:37:35;19.70;99.90
18934;DHT22;9599;53.706;10.384;2022-09-09T08:40:04;19.70;99.90
18934;DHT22;9599;53.706;10.384;2022-09-09T08:42:41;19.60;99.90
18934;DHT22;9599;53.706;10.384;2022-09-09T08:45:25;19.50;99.90
18934;DHT22;9599;53.706;10.384;2022-09-09T08:48:19;19.50;99.90
18934;DHT22;9599;53.706;10.384;2022-09-09T08:50:50;19.80;99.90
18934;DHT22;9599;53.706;10.384;2022-09-09T08:53:28;19.70;99.90
18934;DHT22;9599;53.706;10.384;2022-09-09T08:56:01;19.80;99.90
18934;DHT22;9599;53.706;10.384;2022-09-09T08:58:47;20.00;99.90
18934;DHT22;9599;53.706;10.384;2022-09-09T09:01:40;20.10;99.90
18934;DHT22;9599;53.706;10.384;2022-09-09T09:04:32;19.90;99.90
18934;DHT22;9599;53.706;10.384;2022-09-09T09:07:13;19.60;99.90
18934;DHT22;9599;53.706;10.384;2022-09-09T09:09:51;19.50;99.90
18934;DHT22;9599;53.706;10.384;2022-09-09T09:12:23;19.50;99.90
18934;DHT22;9599;53.706;10.384;2022-09-09T09:14:53;19.60;99.90
18934;DHT22;9599;53.706;10.384;2022-09-09T09:17:24;19.60;99.90
18934;DHT22;9599;53.706;10.384;2022-09-09T09:19:54;19.60;99.90
18934;DHT22;9599;53.706;10.384;2022-09-09T09:22:24;19.80;99.90
18934;DHT22;9599;53.706;10.384;2022-09-09T09:25:05;19.90;99.90
18934;DHT22;9599;53.706;10.384;2022-09-09T09:27:49;19.90;99.90
18934;DHT22;9599;53.706;10.384;2022-09-09T09:30:21;20.10;99.90
18934;DHT22;9599;53.706;10.384;2022-09-09T09:33:02;20.40;99.90
18934;DHT22;9599;53.706;10.384;2022-09-09T09:35:31;20.70;99.90
18934;DHT22;9599;53.706;10.384;2022-09-09T09:38:12;21.20;99.90
18934;DHT22;9599;53.706;10.384;2022-09-09T09:41:05;21.80;99.90
18934;DHT22;9599;53.706;10.384;2022-09-09T09:43:34;21.90;99.90
18934;DHT22;9599;53.706;10.384;2022-09-09T09:46:20;22.10;99.90
18934;DHT22;9599;53.706;10.384;2022-09-09T09:48:59;22.20;99.90
18934;DHT22;9599;53.706;10.384;2022-09-09T09:51:29;22.30;99.90
18934;DHT22;9599;53.706;10.384;2022-09-09T09:54:22;22.50;99.90
18934;DHT22;9599;53.706;10.384;2022-09-09T09:57:08;22.70;99.90
18934;DHT22;9599;53.706;10.384;2022-09-09T09:59:37;22.60;99.90
18934;DHT22;9599;53.706;10.384;2022-09-09T10:02:20;22.50;99.90
18934;DHT22;9599;53.706;10.384;2022-09-09T10:05:12;22.10;99.90
18934;DHT22;9599;53.706;10.384;2022-09-09T10:07:43;22.10;99.90
18934;DHT22;9599;53.706;10.384;2022-09-09T10:10:15;22.00;99.90
18934;DHT22;9599;53.706;10.384;2022-09-09T10:12:56;21.70;99.90
18934;DHT22;9599;53.706;10.384;2022-09-09T10:15:33;21.60;99.90
18934;DHT22;9599;53.706;10.384;2022-09-09T10:18:12;21.90;99.90
18934;DHT22;9599;53.706;10.384;2022-09-09T10:20:49;22.20;99.90
18934;DHT22;9599;53.706;10.384;2022-09-09T10:23:29;22.00;99.90
18934;DHT22;9599;53.706;10.384;2022-09-09T10:26:14;21.90;99.90
18934;DHT22;9599;53.706;10.384;2022-09-09T10:29:00;22.00;99.90
18934;DHT22;9599;53.706;10.384;2022-09-09T10:31:39;22.20;99.90
18934;DHT22;9599;53.706;10.384;2022-09-09T10:34:15;22.30;99.90
18934;DHT22;9599;53.706;10.384;2022-09-09T10:36:47;21.90;99.90
18934;DHT22;9599;53.706;10.384;2022-09-09T10:39:28;21.50;99.90
18934;DHT22;9599;53.706;10.384;2022-09-09T10:42:04;21.60;99.90
18934;DHT22;9599;53.706;10.384;2022-09-09T10:44:45;22.10;99.90
18934;DHT22;9599;53.706;10.384;2022-09-09T10:47:29;22.50;99.90
18934;DHT22;9599;53.706;10.384;2022-09-09T10:50:11;22.70;99.90
18934;DHT22;9599;53.706;10.384;2022-09-09T10:52:48;22.90;99.90
18934;DHT22;9599;53.706;10.384;2022-09-09T10:55:23;22.70;99.90
18934;DHT22;9599;53.706;10.384;2022-09-09T10:57:58;22.80;99.90
18934;DHT22;9599;53.706;10.384;2022-09-09T11:00:37;22.90;99.90
18934;DHT22;9599;53.706;10.384;2022-09-09T11:03:10;22.80;99.90
18934;DHT22;9599;53.706;10.384;2022-09-09T11:05:42;23.10;99.90
18934;DHT22;9599;53.706;10.384;2022-09-09T11:08:15;23.10;99.90
18934;DHT22;9599;53.706;10.384;2022-09-09T11:10:50;23.20;99.90
18934;DHT22;9599;53.706;10.384;2022-09-09T11:13:24;23.40;99.90
18934;DHT22;9599;53.706;10.384;2022-09-09T11:16:00;23.50;99.90
18934;DHT22;9599;53.706;10.384;2022-09-09T11:18:29;23.50;99.90
18934;DHT22;9599;53.706;10.384;2022-09-09T11:21:01;23.50;99.90
18934;DHT22;9599;53.706;10.384;2022-09-09T11:23:38;23.50;99.90
18934;DHT22;9599;53.706;10.384;2022-09-09T11:26:12;23.30;99.90
18934;DHT22;9599;53.706;10.384;2022-09-09T11:28:53;23.30;99.90
18934;DHT22;9599;53.706;10.384;2022-09-09T11:31:43;23.50;99.90
18934;DHT22;9599;53.706;10.384;2022-09-09T11:34:32;23.30;99.90
18934;DHT22;9599;53.706;10.384;2022-09-09T11:37:17;23.30;99.90
18934;DHT22;9599;53.706;10.384;2022-09-09T11:40:14;23.10;99.90
18934;DHT22;9599;53.706;10.384;2022-09-09T11:42:44;23.10;99.90
18934;DHT22;9599;53.706;10.384;2022-09-09T11:45:20;23.10;99.90
18934;DHT22;9599;53.706;10.384;2022-09-09T11:47:56;22.80;99.90
18934;DHT22;9599;53.706;10.384;2022-09-09T11:50:30;22.70;99.90
18934;DHT22;9599;53.706;10.384;2022-09-09T11:53:22;22.60;99.90
18934;DHT22;9599;53.706;10.384;2022-09-09T11:56:12;22.70;99.90
18934;DHT22;9599;53.706;10.384;2022-09-09T11:58:43;22.70;99.90
18934;DHT22;9599;53.706;10.384;2022-09-09T12:01:29;22.60;99.90
18934;DHT22;9599;53.706;10.384;2022-09-09T12:04:17;22.70;99.90
18934;DHT22;9599;53.706;10.384;2022-09-09T12:06:52;22.80;99.90
18934;DHT22;9599;53.706;10.384;2022-09-09T12:09:25;22.70;99.90
18934;DHT22;9599;53.706;10.384;2022-09-09T12:12:05;22.70;99.90
18934;DHT22;9599;53.706;10.384;2022-09-09T12:14:37;22.90;99.90
18934;DHT22;9599;53.706;10.384;2022-09-09T12:17:16;23.00;99.90
18934;DHT22;9599;53.706;10.384;2022-09-09T12:19:47;23.10;99.90
18934;DHT22;9599;53.706;10.384;2022-09-09T12:22:29;23.10;99.90
18934;DHT22;9599;53.706;10.384;2022-09-09T12:25:16;22.90;99.90
18934;DHT22;9599;53.706;10.384;2022-09-09T12:28:00;22.70;99.90
18934;DHT22;9599;53.706;10.384;2022-09-09T12:30:33;22.70;99.90
18934;DHT22;9599;53.706;10.384;2022-09-09T12:33:10;22.70;99.90
18934;DHT22;9599;53.706;10.384;2022-09-09T12:35:40;22.70;99.90
18934;DHT22;9599;53.706;10.384;2022-09-09T12:38:13;22.50;99.90
18934;DHT22;9599;53.706;10.384;2022-09-09T12:40:42;22.50;99.90
18934;DHT22;9599;53.706;10.384;2022-09-09T12:43:18;22.40;99.90
18934;DHT22;9599;53.706;10.384;2022-09-09T12:45:48;22.30;99.90
18934;DHT22;9599;53.706;10.384;2022-09-09T12:48:18;22.20;99.90
18934;DHT22;9599;53.706;10.384;2022-09-09T12:50:50;22.10;99.90
18934;DHT22;9599;53.706;10.384;2022-09-09T12:53:22;22.10;99.90
18934;DHT22;9599;53.706;10.384;2022-09-09T12:55:57;22.10;99.90
18934;DHT22;9599;53.706;10.384;2022-09-09T12:58:26;22.00;99.90
18934;DHT22;9599;53.706;10.384;2022-09-09T13:01:00;22.00;99.90
18934;DHT22;9599;53.706;10.384;2022-09-09T13:03:32;21.90;99.90
18934;DHT22;9599;53.706;10.384;2022-09-09T13:06:13;21.80;99.90
18934;DHT22;9599;53.706;10.384;2022-09-09T13:08:41;21.70;99.90
18934;DHT22;9599;53.706;10.384;2022-09-09T13:11:12;21.60;99.90
18934;DHT22;9599;53.706;10.384;2022-09-09T13:13:42;21.60;99.90
18934;DHT22;9599;53.706;10.384;2022-09-09T13:16:20;21.60;99.90
18934;DHT22;9599;53.706;10.384;2022-09-09T13:18:49;21.60;99.90
18934;DHT22;9599;53.706;10.384;2022-09-09T13:21:19;21.50;99.90
18934;DHT22;9599;53.706;10.384;2022-09-09T13:23:50;21.50;99.90
18934;DHT22;9599;53.706;10.384;2022-09-09T13:26:24;21.40;99.90
18934;DHT22;9599;53.706;10.384;2022-09-09T13:28:52;21.40;99.90
18934;DHT22;9599;53.706;10.384;2022-09-09T13:31:23;21.30;99.90
18934;DHT22;9599;53.706;10.384;2022-09-09T13:33:51;21.30;99.90
18934;DHT22;9599;53.706;10.384;2022-09-09T13:36:29;21.30;99.90
18934;DHT22;9599;53.706;10.384;2022-09-09T13:38:59;21.40;99.90
18934;DHT22;9599;53.706;10.384;2022-09-09T13:41:30;21.30;99.90
18934;DHT22;9599;53.706;10.384;2022-09-09T13:44:00;21.30;99.90
18934;DHT22;9599;53.706;10.384;2022-09-09T13:46:32;21.40;99.90
18934;DHT22;9599;53.706;10.384;2022-09-09T13:49:02;21.40;99.90
18934;DHT22;9599;53.706;10.384;2022-09-09T13:51:47;21.40;99.90
18934;DHT22;9599;53.706;10.384;2022-09-09T13:54:18;21.40;99.90
18934;DHT22;9599;53.706;10.384;2022-09-09T13:56:47;21.40;99.90
18934;DHT22;9599;53.706;10.384;2022-09-09T13:59:18;21.40;99.90
18934;DHT22;9599;53.706;10.384;2022-09-09T14:01:46;21.50;99.90
18934;DHT22;9599;53.706;10.384;2022-09-09T14:04:15;21.60;99.90
18934;DHT22;9599;53.706;10.384;2022-09-09T14:06:43;21.60;99.90
18934;DHT22;9599;53.706;10.384;2022-09-09T14:09:15;21.60;99.90
18934;DHT22;9599;53.706;10.384;2022-09-09T14:11:44;21.50;99.90
18934;DHT22;9599;53.706;10.384;2022-09-09T14:14:12;21.50;99.90
18934;DHT22;9599;53.706;10.384;2022-09-09T14:16:40;21.50;99.90
18934;DHT22;9599;53.706;10.384;2022-09-09T14:19:08;21.50;99.90
18934;DHT22;9599;53.706;10.384;2022-09-09T14:21:36;21.50;99.90
18934;DHT22;9599;53.706;10.384;2022-09-09T14:24:04;21.50;99.90
18934;DHT22;9599;53.706;10.384;2022-09-09T14:26:33;21.40;99.90
18934;DHT22;9599;53.706;10.384;2022-09-09T14:29:01;21.30;99.90
18934;DHT22;9599;53.706;10.384;2022-09-09T14:31:29;21.20;99.90
18934;DHT22;9599;53.706;10.384;2022-09-09T14:33:57;21.20;99.90
18934;DHT22;9599;53.706;10.384;2022-09-09T14:36:25;21.20;99.90
18934;DHT22;9599;53.706;10.384;2022-09-09T14:38:53;21.20;99.90
18934;DHT22;9599;53.706;10.384;2022-09-09T14:41:21;21.20;99.90
18934;DHT22;9599;53.706;10.384;2022-09-09T14:43:50;21.10;99.90
18934;DHT22;9599;53.706;10.384;2022-09-09T14:46:19;21.00;99.90
18934;DHT22;9599;53.706;10.384;2022-09-09T14:48:47;21.00;99.90
18934;DHT22;9599;53.706;10.384;2022-09-09T14:51:17;20.90;99.90
18934;DHT22;9599;53.706;10.384;2022-09-09T14:53:46;20.80;99.90
18934;DHT22;9599;53.706;10.384;2022-09-09T14:56:17;20.80;99.90
18934;DHT22;9599;53.706;10.384;2022-09-09T14:58:45;20.80;99.90
18934;DHT22;9599;53.706;10.384;2022-09-09T15:01:17;20.80;99.90
18934;DHT22;9599;53.706;10.384;2022-09-09T15:03:50;20.80;99.90
18934;DHT22;9599;53.706;10.384;2022-09-09T15:06:19;20.80;99.90
18934;DHT22;9599;53.706;10.384;2022-09-09T15:08:47;20.80;99.90
18934;DHT22;9599;53.706;10.384;2022-09-09T15:11:17;20.70;99.90
18934;DHT22;9599;53.706;10.384;2022-09-09T15:13:45;20.70;99.90
18934;DHT22;9599;53.706;10.384;2022-09-09T15:16:16;20.60;99.90
18934;DHT22;9599;53.706;10.384;2022-09-09T15:18:46;20.50;99.90
18934;DHT22;9599;53.706;10.384;2022-09-09T15:21:16;20.50;99.90
18934;DHT22;9599;53.706;10.384;2022-09-09T15:23:45;20.40;99.90
18934;DHT22;9599;53.706;10.384;2022-09-09T15:26:14;20.30;99.90
18934;DHT22;9599;53.706;10.384;2022-09-09T15:28:43;20.20;99.90
18934;DHT22;9599;53.706;10.384;2022-09-09T15:31:16;20.10;99.90
18934;DHT22;9599;53.706;10.384;2022-09-09T15:33:47;20.10;99.90
18934;DHT22;9599;53.706;10.384;2022-09-09T15:36:17;19.90;99.90
18934;DHT22;9599;53.706;10.384;2022-09-09T15:38:45;19.80;99.90
18934;DHT22;9599;53.706;10.384;2022-09-09T15:41:13;19.70;99.90
18934;DHT22;9599;53.706;10.384;2022-09-09T15:43:44;19.70;99.90
18934;DHT22;9599;53.706;10.384;2022-09-09T15:46:32;19.70;99.90
18934;DHT22;9599;53.706;10.384;2022-09-09T15:49:04;19.80;99.90
18934;DHT22;9599;53.706;10.384;2022-09-09T15:51:32;19.70;99.90
18934;DHT22;9599;53.706;10.384;2022-09-09T15:54:11;19.80;99.90
18934;DHT22;9599;53.706;10.384;2022-09-09T15:56:40;19.70;99.90
18934;DHT22;9599;53.706;10.384;2022-09-09T15:59:08;19.60;99.90
18934;DHT22;9599;53.706;10.384;2022-09-09T16:01:38;19.50;99.90
18934;DHT22;9599;53.706;10.384;2022-09-09T16:04:07;19.50;99.90
18934;DHT22;9599;53.706;10.384;2022-09-09T16:06:35;19.50;99.90
18934;DHT22;9599;53.706;10.384;2022-09-09T16:09:04;19.50;99.90